sensor_id;sensor_type;location;lat;lon;timestamp;pressure;altitude;pressure_sealevel;temperature;humidity
71976;BME280;60680;52.182;5.398;2023-02-12T00:01:07;103862.03;;;7.90;91.67
71976;BME280;60680;52.182;5.398;2023-02-12T00:03:35;103866.34;;;7.86;92.21
71976;BME280;60680;52.182;5.398;2023-02-12T00:06:01;103869.81;;;7.87;91.93
71976;BME280;60680;52.182;5.398;2023-02-12T00:08:28;103860.28;;;7.86;91.74
71976;BME280;60680;52.182;5.398;2023-02-12T00:10:55;103864.63;;;7.87;91.57
71976;BME280;60680;52.182;5.398;2023-02-12T00:13:22;103859.38;;;7.84;92.12
71976;BME280;60680;52.182;5.398;2023-02-12T00:15:49;103866.31;;;7.85;92.46
71976;BME280;60680;52.182;5.398;2023-02-12T00:18:16;103865.47;;;7.86;91.76
71976;BME280;60680;52.182;5.398;2023-02-12T00:20:42;103865.47;;;7.84;92.22
71976;BME280;60680;52.182;5.398;2023-02-12T00:23:12;103867.16;;;7.82;92.31
71976;BME280;60680;52.182;5.398;2023-02-12T00:25:41;103856.75;;;7.79;92.44
71976;BME280;60680;52.182;5.398;2023-02-12T00:28:08;103855.84;;;7.75;92.07
71976;BME280;60680;52.182;5.398;2023-02-12T00:30:35;103861.91;;;7.74;92.67
71976;BME280;60680;52.182;5.398;2023-02-12T00:33:02;103864.47;;;7.73;92.75
71976;BME280;60680;52.182;5.398;2023-02-12T00:35:28;103859.25;;;7.70;92.61
71976;BME280;60680;52.182;5.398;2023-02-12T00:37:55;103864.44;;;7.70;92.52
71976;BME280;60680;52.182;5.398;2023-02-12T00:40:21;103859.25;;;7.68;92.96
71976;BME280;60680;52.182;5.398;2023-02-12T00:42:47;103856.63;;;7.65;92.76
71976;BME280;60680;52.182;5.398;2023-02-12T00:45:14;103858.31;;;7.65;92.31
71976;BME280;60680;52.182;5.398;2023-02-12T00:47:40;103860.03;;;7.63;92.66
71976;BME280;60680;52.182;5.398;2023-02-12T00:50:07;103854.84;;;7.63;92.80
71976;BME280;60680;52.182;5.398;2023-02-12T00:52:34;103856.56;;;7.61;92.61
71976;BME280;60680;52.182;5.398;2023-02-12T00:55:01;103853.97;;;7.59;92.94
71976;BME280;60680;52.182;5.398;2023-02-12T00:57:27;103867.75;;;7.58;92.63
71976;BME280;60680;52.182;5.398;2023-02-12T00:59:54;103862.59;;;7.57;93.54
71976;BME280;60680;52.182;5.398;2023-02-12T01:02:20;103860.00;;;7.57;93.56
71976;BME280;60680;52.182;5.398;2023-02-12T01:04:47;103858.25;;;7.57;93.19
71976;BME280;60680;52.182;5.398;2023-02-12T01:07:13;103861.69;;;7.56;93.27
71976;BME280;60680;52.182;5.398;2023-02-12T01:09:39;103865.19;;;7.57;93.04
71976;BME280;60680;52.182;5.398;2023-02-12T01:12:06;103861.69;;;7.54;93.40
71976;BME280;60680;52.182;5.398;2023-02-12T01:14:33;103863.41;;;7.55;93.38
71976;BME280;60680;52.182;5.398;2023-02-12T01:16:59;103862.56;;;7.55;93.29
71976;BME280;60680;52.182;5.398;2023-02-12T01:19:26;103864.31;;;7.58;93.44
71976;BME280;60680;52.182;5.398;2023-02-12T01:21:53;103860.81;;;7.55;92.96
71976;BME280;60680;52.182;5.398;2023-02-12T01:24:19;103863.41;;;7.55;93.01
71976;BME280;60680;52.182;5.398;2023-02-12T01:26:46;103853.06;;;7.55;93.28
71976;BME280;60680;52.182;5.398;2023-02-12T01:29:12;103853.06;;;7.55;93.19
71976;BME280;60680;52.182;5.398;2023-02-12T01:31:38;103860.81;;;7.54;93.15
71976;BME280;60680;52.182;5.398;2023-02-12T01:34:06;103867.72;;;7.53;92.85
71976;BME280;60680;52.182;5.398;2023-02-12T01:36:33;103863.41;;;7.52;93.13
71976;BME280;60680;52.182;5.398;2023-02-12T01:39:01;103854.72;;;7.52;93.25
71976;BME280;60680;52.182;5.398;2023-02-12T01:41:33;103853.84;;;7.50;93.28
71976;BME280;60680;52.182;5.398;2023-02-12T01:44:17;103860.75;;;7.46;93.61
71976;BME280;60680;52.182;5.398;2023-02-12T01:46:45;103857.22;;;7.43;93.49
71976;BME280;60680;52.182;5.398;2023-02-12T01:49:17;103864.16;;;7.42;93.14
71976;BME280;60680;52.182;5.398;2023-02-12T01:51:46;103858.06;;;7.40;93.78
71976;BME280;60680;52.182;5.398;2023-02-12T01:54:16;103865.81;;;7.39;93.71
71976;BME280;60680;52.182;5.398;2023-02-12T01:56:43;103871.84;;;7.36;93.85
71976;BME280;60680;52.182;5.398;2023-02-12T01:59:10;103872.69;;;7.35;93.80
71976;BME280;60680;52.182;5.398;2023-02-12T02:01:38;103861.44;;;7.34;94.00
71976;BME280;60680;52.182;5.398;2023-02-12T02:04:08;103863.16;;;7.32;93.82
71976;BME280;60680;52.182;5.398;2023-02-12T02:06:41;103857.94;;;7.29;93.79
71976;BME280;60680;52.182;5.398;2023-02-12T02:09:10;103856.19;;;7.27;94.17
71976;BME280;60680;52.182;5.398;2023-02-12T02:11:37;103855.31;;;7.25;93.93
71976;BME280;60680;52.182;5.398;2023-02-12T02:14:22;103858.72;;;7.24;94.11
71976;BME280;60680;52.182;5.398;2023-02-12T02:26:14;103858.72;;;7.22;94.19
71976;BME280;60680;52.182;5.398;2023-02-12T02:31:56;103858.78;;;7.27;94.01
71976;BME280;60680;52.182;5.398;2023-02-12T02:34:47;103849.25;;;7.26;94.24
71976;BME280;60680;52.182;5.398;2023-02-12T02:37:19;103856.13;;;7.24;94.03
71976;BME280;60680;52.182;5.398;2023-02-12T02:40:22;103850.94;;;7.22;93.80
71976;BME280;60680;52.182;5.398;2023-02-12T02:43:04;103849.16;;;7.17;94.02
71976;BME280;60680;52.182;5.398;2023-02-12T02:45:37;103847.34;;;7.11;94.12
71976;BME280;60680;52.182;5.398;2023-02-12T02:50:39;103842.16;;;7.09;94.70
71976;BME280;60680;52.182;5.398;2023-02-12T02:53:11;103846.47;;;7.09;94.37
71976;BME280;60680;52.182;5.398;2023-02-12T02:55:44;103849.88;;;7.06;94.33
71976;BME280;60680;52.182;5.398;2023-02-12T02:58:16;103838.63;;;7.04;94.59
71976;BME280;60680;52.182;5.398;2023-02-12T03:00:47;103836.91;;;7.05;94.45
71976;BME280;60680;52.182;5.398;2023-02-12T03:03:26;103840.38;;;7.05;94.62
71976;BME280;60680;52.182;5.398;2023-02-12T03:06:01;103839.50;;;7.05;94.83
71976;BME280;60680;52.182;5.398;2023-02-12T03:08:38;103841.22;;;7.04;94.15
71976;BME280;60680;52.182;5.398;2023-02-12T03:11:14;103834.31;;;7.02;94.14
71976;BME280;60680;52.182;5.398;2023-02-12T03:13:49;103836.84;;;6.99;94.68
71976;BME280;60680;52.182;5.398;2023-02-12T03:16:21;103836.81;;;6.96;94.51
71976;BME280;60680;52.182;5.398;2023-02-12T03:18:54;103829.03;;;6.96;94.83
71976;BME280;60680;52.182;5.398;2023-02-12T03:21:31;103833.34;;;6.95;95.08
71976;BME280;60680;52.182;5.398;2023-02-12T03:24:12;103829.88;;;6.94;94.65
71976;BME280;60680;52.182;5.398;2023-02-12T03:26:46;103832.47;;;6.94;95.05
71976;BME280;60680;52.182;5.398;2023-02-12T03:29:13;103835.06;;;6.94;94.58
71976;BME280;60680;52.182;5.398;2023-02-12T03:34:40;103840.31;;;6.99;94.79
71976;BME280;60680;52.182;5.398;2023-02-12T03:37:16;103838.56;;;6.98;94.53
71976;BME280;60680;52.182;5.398;2023-02-12T03:39:55;103835.13;;;7.01;94.71
71976;BME280;60680;52.182;5.398;2023-02-12T03:42:34;103840.31;;;7.01;94.77
71976;BME280;60680;52.182;5.398;2023-02-12T03:47:44;103837.72;;;7.01;95.29
71976;BME280;60680;52.182;5.398;2023-02-12T03:50:15;103843.78;;;7.03;94.30
71976;BME280;60680;52.182;5.398;2023-02-12T03:52:43;103836.00;;;7.00;94.99
71976;BME280;60680;52.182;5.398;2023-02-12T03:55:11;103838.59;;;7.00;94.24
71976;BME280;60680;52.182;5.398;2023-02-12T03:57:41;103848.94;;;7.00;94.86
71976;BME280;60680;52.182;5.398;2023-02-12T04:00:19;103853.28;;;7.02;94.84
71976;BME280;60680;52.182;5.398;2023-02-12T04:02:47;103847.22;;;7.00;94.71
71976;BME280;60680;52.182;5.398;2023-02-12T04:05:23;103855.88;;;7.02;94.68
71976;BME280;60680;52.182;5.398;2023-02-12T04:07:51;103855.88;;;7.02;94.57
71976;BME280;60680;52.182;5.398;2023-02-12T04:10:21;103845.53;;;7.04;94.32
71976;BME280;60680;52.182;5.398;2023-02-12T04:12:51;103850.69;;;7.02;94.76
71976;BME280;60680;52.182;5.398;2023-02-12T04:18:14;103861.91;;;7.03;94.84
71976;BME280;60680;52.182;5.398;2023-02-12T04:21:03;103866.25;;;7.04;94.69
71976;BME280;60680;52.182;5.398;2023-02-12T04:26:31;103866.25;;;7.05;94.52
71976;BME280;60680;52.182;5.398;2023-02-12T04:31:53;103873.16;;;7.05;94.94
71976;BME280;60680;52.182;5.398;2023-02-12T04:37:48;103878.38;;;7.06;94.77
71976;BME280;60680;52.182;5.398;2023-02-12T04:40:18;103880.06;;;7.04;95.04
71976;BME280;60680;52.182;5.398;2023-02-12T04:42:48;103881.78;;;7.04;94.77
71976;BME280;60680;52.182;5.398;2023-02-12T04:45:20;103880.91;;;7.03;95.24
71976;BME280;60680;52.182;5.398;2023-02-12T04:47:47;103883.47;;;7.00;95.02
71976;BME280;60680;52.182;5.398;2023-02-12T04:50:14;103886.06;;;7.00;95.44
71976;BME280;60680;52.182;5.398;2023-02-12T04:52:40;103886.06;;;7.00;95.36
71976;BME280;60680;52.182;5.398;2023-02-12T04:55:07;103882.56;;;6.98;95.59
71976;BME280;60680;52.182;5.398;2023-02-12T04:57:33;103880.84;;;6.99;95.55
71976;BME280;60680;52.182;5.398;2023-02-12T04:59:59;103881.75;;;6.99;95.37
71976;BME280;60680;52.182;5.398;2023-02-12T05:02:26;103885.16;;;6.98;95.82
71976;BME280;60680;52.182;5.398;2023-02-12T05:04:52;103879.97;;;6.98;95.14
71976;BME280;60680;52.182;5.398;2023-02-12T05:07:19;103881.75;;;7.01;95.29
71976;BME280;60680;52.182;5.398;2023-02-12T05:09:45;103883.47;;;7.00;95.58
71976;BME280;60680;52.182;5.398;2023-02-12T05:12:12;103886.09;;;7.02;95.33
71976;BME280;60680;52.182;5.398;2023-02-12T05:14:38;103885.19;;;7.01;95.41
71976;BME280;60680;52.182;5.398;2023-02-12T05:17:04;103887.78;;;7.00;95.26
71976;BME280;60680;52.182;5.398;2023-02-12T05:19:31;103886.06;;;7.00;95.56
71976;BME280;60680;52.182;5.398;2023-02-12T05:21:57;103883.47;;;7.00;95.68
71976;BME280;60680;52.182;5.398;2023-02-12T05:24:24;103882.59;;;7.00;95.79
71976;BME280;60680;52.182;5.398;2023-02-12T05:26:51;103879.16;;;6.99;95.99
71976;BME280;60680;52.182;5.398;2023-02-12T05:29:18;103884.31;;;7.01;95.48
71976;BME280;60680;52.182;5.398;2023-02-12T05:31:44;103888.63;;;7.00;95.48
71976;BME280;60680;52.182;5.398;2023-02-12T05:34:11;103886.06;;;7.00;95.20
71976;BME280;60680;52.182;5.398;2023-02-12T05:36:38;103889.50;;;7.01;95.38
71976;BME280;60680;52.182;5.398;2023-02-12T05:39:06;103889.50;;;6.99;95.86
71976;BME280;60680;52.182;5.398;2023-02-12T05:41:32;103886.03;;;6.99;95.93
71976;BME280;60680;52.182;5.398;2023-02-12T05:44:02;103886.88;;;6.98;95.68
71976;BME280;60680;52.182;5.398;2023-02-12T05:46:29;103886.03;;;6.99;95.83
71976;BME280;60680;52.182;5.398;2023-02-12T05:48:56;103892.06;;;6.98;95.61
71976;BME280;60680;52.182;5.398;2023-02-12T05:51:24;103897.28;;;6.99;95.85
71976;BME280;60680;52.182;5.398;2023-02-12T05:53:55;103895.53;;;7.00;95.65
71976;BME280;60680;52.182;5.398;2023-02-12T05:56:24;103901.59;;;7.00;95.22
71976;BME280;60680;52.182;5.398;2023-02-12T05:58:56;103898.13;;;7.00;95.35
71976;BME280;60680;52.182;5.398;2023-02-12T06:01:26;103896.41;;;7.00;95.48
71976;BME280;60680;52.182;5.398;2023-02-12T06:03:53;103892.97;;;7.00;95.35
71976;BME280;60680;52.182;5.398;2023-02-12T06:06:20;103899.00;;;7.00;95.70
71976;BME280;60680;52.182;5.398;2023-02-12T06:08:48;103899.84;;;7.01;95.43
71976;BME280;60680;52.182;5.398;2023-02-12T06:11:15;103893.78;;;6.99;95.39
71976;BME280;60680;52.182;5.398;2023-02-12T06:13:42;103893.78;;;6.99;95.82
71976;BME280;60680;52.182;5.398;2023-02-12T06:16:20;103894.72;;;7.02;95.74
71976;BME280;60680;52.182;5.398;2023-02-12T06:18:53;103897.31;;;7.02;95.94
71976;BME280;60680;52.182;5.398;2023-02-12T06:21:21;103899.00;;;7.00;95.51
71976;BME280;60680;52.182;5.398;2023-02-12T06:23:48;103896.38;;;6.99;95.58
71976;BME280;60680;52.182;5.398;2023-02-12T06:26:16;103890.34;;;6.98;95.54
71976;BME280;60680;52.182;5.398;2023-02-12T06:28:42;103895.50;;;6.98;95.89
71976;BME280;60680;52.182;5.398;2023-02-12T06:31:19;103892.97;;;7.00;95.53
71976;BME280;60680;52.182;5.398;2023-02-12T06:33:46;103893.78;;;6.97;96.19
71976;BME280;60680;52.182;5.398;2023-02-12T06:36:13;103901.56;;;6.97;96.01
71976;BME280;60680;52.182;5.398;2023-02-12T06:38:39;103892.03;;;6.96;96.17
71976;BME280;60680;52.182;5.398;2023-02-12T06:41:06;103893.72;;;6.94;96.31
71976;BME280;60680;52.182;5.398;2023-02-12T06:43:32;103886.81;;;6.93;96.16
71976;BME280;60680;52.182;5.398;2023-02-12T06:46:00;103897.19;;;6.93;96.62
71976;BME280;60680;52.182;5.398;2023-02-12T06:48:27;103899.78;;;6.94;96.26
71976;BME280;60680;52.182;5.398;2023-02-12T06:50:54;103904.09;;;6.94;96.43
71976;BME280;60680;52.182;5.398;2023-02-12T06:53:21;103909.25;;;6.94;96.21
71976;BME280;60680;52.182;5.398;2023-02-12T06:55:47;103912.72;;;6.93;96.43
71976;BME280;60680;52.182;5.398;2023-02-12T06:58:13;103910.97;;;6.92;96.60
71976;BME280;60680;52.182;5.398;2023-02-12T07:00:40;103913.53;;;6.92;96.34
71976;BME280;60680;52.182;5.398;2023-02-12T07:03:06;103907.53;;;6.93;96.22
71976;BME280;60680;52.182;5.398;2023-02-12T07:05:33;103914.41;;;6.92;96.04
71976;BME280;60680;52.182;5.398;2023-02-12T07:08:03;103920.47;;;6.93;95.91
71976;BME280;60680;52.182;5.398;2023-02-12T07:10:29;103916.16;;;6.93;96.24
71976;BME280;60680;52.182;5.398;2023-02-12T07:15:23;103923.09;;;6.96;96.09
71976;BME280;60680;52.182;5.398;2023-02-12T07:17:50;103925.69;;;6.96;96.05
71976;BME280;60680;52.182;5.398;2023-02-12T07:20:16;103923.09;;;6.96;95.78
71976;BME280;60680;52.182;5.398;2023-02-12T07:22:43;103925.69;;;6.96;95.88
71976;BME280;60680;52.182;5.398;2023-02-12T07:25:09;103926.56;;;6.95;95.66
71976;BME280;60680;52.182;5.398;2023-02-12T07:27:36;103931.72;;;6.97;96.04
71976;BME280;60680;52.182;5.398;2023-02-12T07:30:04;103925.72;;;6.98;95.83
71976;BME280;60680;52.182;5.398;2023-02-12T07:32:32;103939.56;;;7.00;95.50
71976;BME280;60680;52.182;5.398;2023-02-12T07:34:58;103947.31;;;7.00;95.63
71976;BME280;60680;52.182;5.398;2023-02-12T07:37:25;103941.28;;;7.01;95.16
71976;BME280;60680;52.182;5.398;2023-02-12T07:39:51;103941.28;;;7.01;95.56
71976;BME280;60680;52.182;5.398;2023-02-12T07:42:18;103940.44;;;7.03;95.12
71976;BME280;60680;52.182;5.398;2023-02-12T07:44:44;103951.72;;;7.04;95.04
71976;BME280;60680;52.182;5.398;2023-02-12T07:47:10;103950.00;;;7.06;94.75
71976;BME280;60680;52.182;5.398;2023-02-12T07:49:37;103953.50;;;7.08;95.15
71976;BME280;60680;52.182;5.398;2023-02-12T07:52:03;103950.91;;;7.08;94.80
71976;BME280;60680;52.182;5.398;2023-02-12T07:54:30;103961.25;;;7.09;95.17
71976;BME280;60680;52.182;5.398;2023-02-12T07:56:56;103965.59;;;7.10;95.00
71976;BME280;60680;52.182;5.398;2023-02-12T07:59:23;103956.97;;;7.11;94.93
71976;BME280;60680;52.182;5.398;2023-02-12T08:01:50;103962.19;;;7.13;94.69
71976;BME280;60680;52.182;5.398;2023-02-12T08:04:20;103959.59;;;7.13;95.15
71976;BME280;60680;52.182;5.398;2023-02-12T08:06:49;103963.03;;;7.13;94.24
71976;BME280;60680;52.182;5.398;2023-02-12T08:09:18;103965.66;;;7.15;94.45
71976;BME280;60680;52.182;5.398;2023-02-12T08:11:46;103966.53;;;7.15;94.01
71976;BME280;60680;52.182;5.398;2023-02-12T08:14:15;103972.56;;;7.16;94.06
71976;BME280;60680;52.182;5.398;2023-02-12T08:16:43;103970.00;;;7.18;94.20
71976;BME280;60680;52.182;5.398;2023-02-12T08:19:10;103965.75;;;7.21;94.39
71976;BME280;60680;52.182;5.398;2023-02-12T08:21:51;103976.16;;;7.23;93.90
71976;BME280;60680;52.182;5.398;2023-02-12T08:24:18;103981.34;;;7.26;92.97
71976;BME280;60680;52.182;5.398;2023-02-12T08:26:44;103981.34;;;7.26;92.88
71976;BME280;60680;52.182;5.398;2023-02-12T08:29:14;103982.25;;;7.28;93.29
71976;BME280;60680;52.182;5.398;2023-02-12T08:31:46;103985.72;;;7.30;93.34
71976;BME280;60680;52.182;5.398;2023-02-12T08:34:28;103981.44;;;7.32;93.63
71976;BME280;60680;52.182;5.398;2023-02-12T08:36:55;103990.06;;;7.29;93.18
71976;BME280;60680;52.182;5.398;2023-02-12T08:39:23;103990.06;;;7.29;92.84
71976;BME280;60680;52.182;5.398;2023-02-12T08:41:53;103991.81;;;7.32;93.36
71976;BME280;60680;52.182;5.398;2023-02-12T08:44:20;103988.34;;;7.33;93.13
71976;BME280;60680;52.182;5.398;2023-02-12T08:46:49;104000.50;;;7.35;93.13
71976;BME280;60680;52.182;5.398;2023-02-12T08:49:19;104002.19;;;7.35;92.58
71976;BME280;60680;52.182;5.398;2023-02-12T08:51:48;104004.00;;;7.38;92.42
71976;BME280;60680;52.182;5.398;2023-02-12T08:54:18;103996.22;;;7.38;91.86
71976;BME280;60680;52.182;5.398;2023-02-12T08:56:45;103997.91;;;7.37;92.06
71976;BME280;60680;52.182;5.398;2023-02-12T08:59:13;104004.03;;;7.41;92.37
71976;BME280;60680;52.182;5.398;2023-02-12T09:01:40;104002.31;;;7.43;90.87
71976;BME280;60680;52.182;5.398;2023-02-12T09:04:12;104003.22;;;7.45;90.88
71976;BME280;60680;52.182;5.398;2023-02-12T09:06:40;104003.19;;;7.43;91.09
71976;BME280;60680;52.182;5.398;2023-02-12T09:09:06;104002.34;;;7.44;91.01
71976;BME280;60680;52.182;5.398;2023-02-12T09:11:33;104007.53;;;7.46;91.16
71976;BME280;60680;52.182;5.398;2023-02-12T09:14:02;104006.72;;;7.48;91.15
71976;BME280;60680;52.182;5.398;2023-02-12T09:16:31;104007.63;;;7.52;90.75
71976;BME280;60680;52.182;5.398;2023-02-12T09:18:58;104005.91;;;7.52;90.60
71976;BME280;60680;52.182;5.398;2023-02-12T09:21:25;104007.66;;;7.53;90.89
71976;BME280;60680;52.182;5.398;2023-02-12T09:23:51;104012.84;;;7.55;89.99
71976;BME280;60680;52.182;5.398;2023-02-12T09:26:22;104008.53;;;7.55;90.40
71976;BME280;60680;52.182;5.398;2023-02-12T09:28:49;104017.19;;;7.56;89.56
71976;BME280;60680;52.182;5.398;2023-02-12T09:31:27;104016.34;;;7.59;89.24
71976;BME280;60680;52.182;5.398;2023-02-12T09:33:58;104008.63;;;7.62;89.77
71976;BME280;60680;52.182;5.398;2023-02-12T09:36:25;104014.69;;;7.64;89.61
71976;BME280;60680;52.182;5.398;2023-02-12T09:38:51;104013.00;;;7.66;89.14
71976;BME280;60680;52.182;5.398;2023-02-12T09:47:00;104021.72;;;7.72;88.86
71976;BME280;60680;52.182;5.398;2023-02-12T09:52:04;104007.09;;;7.78;88.99
71976;BME280;60680;52.182;5.398;2023-02-12T09:54:37;104014.06;;;7.80;88.93
71976;BME280;60680;52.182;5.398;2023-02-12T09:57:13;104016.63;;;7.82;88.66
71976;BME280;60680;52.182;5.398;2023-02-12T09:59:50;104016.69;;;7.85;88.84
71976;BME280;60680;52.182;5.398;2023-02-12T10:02:19;104008.06;;;7.84;87.82
71976;BME280;60680;52.182;5.398;2023-02-12T10:04:47;104017.56;;;7.85;88.20
71976;BME280;60680;52.182;5.398;2023-02-12T10:10:33;104012.44;;;7.91;88.03
71976;BME280;60680;52.182;5.398;2023-02-12T10:13:26;104011.59;;;7.92;87.56
71976;BME280;60680;52.182;5.398;2023-02-12T10:19:37;104007.31;;;7.96;87.63
71976;BME280;60680;52.182;5.398;2023-02-12T10:22:23;104012.53;;;7.97;87.05
71976;BME280;60680;52.182;5.398;2023-02-12T10:28:16;104004.78;;;8.02;86.51
71976;BME280;60680;52.182;5.398;2023-02-12T10:30:50;104010.84;;;8.03;87.05
71976;BME280;60680;52.182;5.398;2023-02-12T10:33:24;104011.75;;;8.06;87.04
71976;BME280;60680;52.182;5.398;2023-02-12T10:38:41;104023.94;;;8.12;86.55
71976;BME280;60680;52.182;5.398;2023-02-12T10:41:14;104013.56;;;8.12;86.37
71976;BME280;60680;52.182;5.398;2023-02-12T10:43:41;104017.88;;;8.13;85.73
71976;BME280;60680;52.182;5.398;2023-02-12T10:46:15;104017.94;;;8.17;85.52
71976;BME280;60680;52.182;5.398;2023-02-12T10:48:47;104011.88;;;8.17;85.39
71976;BME280;60680;52.182;5.398;2023-02-12T10:51:55;104014.50;;;8.20;85.88
71976;BME280;60680;52.182;5.398;2023-02-12T10:54:34;104014.50;;;8.20;85.09
71976;BME280;60680;52.182;5.398;2023-02-12T10:57:20;104014.53;;;8.23;85.24
71976;BME280;60680;52.182;5.398;2023-02-12T10:59:49;104018.00;;;8.24;84.63
71976;BME280;60680;52.182;5.398;2023-02-12T11:04:49;104017.19;;;8.28;85.15
71976;BME280;60680;52.182;5.398;2023-02-12T11:07:17;104012.88;;;8.30;83.97
71976;BME280;60680;52.182;5.398;2023-02-12T11:09:46;104005.97;;;8.32;84.43
71976;BME280;60680;52.182;5.398;2023-02-12T11:12:27;104007.72;;;8.34;84.27
71976;BME280;60680;52.182;5.398;2023-02-12T11:14:58;104015.50;;;8.34;83.82
71976;BME280;60680;52.182;5.398;2023-02-12T11:17:29;104010.38;;;8.37;84.34
71976;BME280;60680;52.182;5.398;2023-02-12T11:22:29;104004.31;;;8.38;82.95
71976;BME280;60680;52.182;5.398;2023-02-12T11:25:00;104002.66;;;8.42;83.24
71976;BME280;60680;52.182;5.398;2023-02-12T11:27:33;103997.50;;;8.44;82.91
71976;BME280;60680;52.182;5.398;2023-02-12T11:32:36;104004.41;;;8.48;82.94
71976;BME280;60680;52.182;5.398;2023-02-12T11:38:02;103998.41;;;8.50;82.67
71976;BME280;60680;52.182;5.398;2023-02-12T11:40:30;103998.44;;;8.53;81.88
71976;BME280;60680;52.182;5.398;2023-02-12T11:43:05;103989.81;;;8.54;82.31
71976;BME280;60680;52.182;5.398;2023-02-12T11:45:42;103991.53;;;8.55;82.21
71976;BME280;60680;52.182;5.398;2023-02-12T11:48:23;103993.28;;;8.56;81.79
71976;BME280;60680;52.182;5.398;2023-02-12T11:50:53;103994.16;;;8.57;81.64
71976;BME280;60680;52.182;5.398;2023-02-12T11:53:24;103991.56;;;8.59;81.71
71976;BME280;60680;52.182;5.398;2023-02-12T11:55:57;103996.75;;;8.59;81.59
71976;BME280;60680;52.182;5.398;2023-02-12T11:58:26;103989.78;;;8.56;81.36
71976;BME280;60680;52.182;5.398;2023-02-12T12:00:58;103989.84;;;8.59;81.63
71976;BME280;60680;52.182;5.398;2023-02-12T12:03:33;103989.00;;;8.62;82.26
71976;BME280;60680;52.182;5.398;2023-02-12T12:09:06;103987.34;;;8.70;81.63
71976;BME280;60680;52.182;5.398;2023-02-12T12:11:52;103970.03;;;8.70;79.96
71976;BME280;60680;52.182;5.398;2023-02-12T12:17:40;103970.94;;;8.77;80.65
71976;BME280;60680;52.182;5.398;2023-02-12T12:20:31;103969.19;;;8.77;80.41
71976;BME280;60680;52.182;5.398;2023-02-12T12:23:05;103964.03;;;8.76;80.22
71976;BME280;60680;52.182;5.398;2023-02-12T12:25:42;103966.59;;;8.77;79.49
71976;BME280;60680;52.182;5.398;2023-02-12T12:28:50;103957.09;;;8.78;79.73
71976;BME280;60680;52.182;5.398;2023-02-12T12:31:27;103960.53;;;8.75;79.14
71976;BME280;60680;52.182;5.398;2023-02-12T12:34:04;103959.72;;;8.78;79.68
71976;BME280;60680;52.182;5.398;2023-02-12T12:51:41;103950.19;;;8.82;79.43
71976;BME280;60680;52.182;5.398;2023-02-12T12:57:17;103943.34;;;8.88;78.88
71976;BME280;60680;52.182;5.398;2023-02-12T13:11:39;103930.34;;;8.91;78.92
71976;BME280;60680;52.182;5.398;2023-02-12T13:19:42;103924.25;;;8.88;76.85
71976;BME280;60680;52.182;5.398;2023-02-12T13:25:05;103927.75;;;8.90;77.29
71976;BME280;60680;52.182;5.398;2023-02-12T13:27:36;103926.03;;;8.89;76.73
71976;BME280;60680;52.182;5.398;2023-02-12T13:30:10;103924.28;;;8.86;76.46
71976;BME280;60680;52.182;5.398;2023-02-12T13:32:47;103922.50;;;8.84;76.07
71976;BME280;60680;52.182;5.398;2023-02-12T13:35:19;103916.44;;;8.82;76.10
71976;BME280;60680;52.182;5.398;2023-02-12T13:37:50;103914.72;;;8.82;77.03
71976;BME280;60680;52.182;5.398;2023-02-12T13:40:22;103917.34;;;8.85;76.75
71976;BME280;60680;52.182;5.398;2023-02-12T13:42:57;103913.88;;;8.88;77.52
71976;BME280;60680;52.182;5.398;2023-02-12T13:45:49;103907.84;;;8.92;76.92
71976;BME280;60680;52.182;5.398;2023-02-12T13:53:46;103908.72;;;8.92;76.71
71976;BME280;60680;52.182;5.398;2023-02-12T13:56:37;103899.22;;;8.93;76.59
71976;BME280;60680;52.182;5.398;2023-02-12T14:02:01;103894.00;;;8.88;77.36
71976;BME280;60680;52.182;5.398;2023-02-12T14:04:31;103903.50;;;8.89;77.50
71976;BME280;60680;52.182;5.398;2023-02-12T14:07:03;103904.38;;;8.87;76.78
71976;BME280;60680;52.182;5.398;2023-02-12T14:09:41;103900.03;;;8.84;75.97
71976;BME280;60680;52.182;5.398;2023-02-12T14:12:13;103896.56;;;8.82;76.30
71976;BME280;60680;52.182;5.398;2023-02-12T14:14:46;103891.34;;;8.82;77.32
71976;BME280;60680;52.182;5.398;2023-02-12T14:19:56;103885.28;;;8.80;76.30
71976;BME280;60680;52.182;5.398;2023-02-12T14:24:58;103893.94;;;8.81;76.08
71976;BME280;60680;52.182;5.398;2023-02-12T14:27:35;103887.88;;;8.80;76.18
71976;BME280;60680;52.182;5.398;2023-02-12T14:46:59;103879.16;;;8.72;76.62
71976;BME280;60680;52.182;5.398;2023-02-12T14:49:33;103881.78;;;8.72;76.84
71976;BME280;60680;52.182;5.398;2023-02-12T14:54:33;103878.31;;;8.71;76.98
71976;BME280;60680;52.182;5.398;2023-02-12T14:59:47;103886.06;;;8.68;76.31
71976;BME280;60680;52.182;5.398;2023-02-12T15:02:24;103889.53;;;8.67;76.52
71976;BME280;60680;52.182;5.398;2023-02-12T15:04:54;103886.91;;;8.64;76.94
71976;BME280;60680;52.182;5.398;2023-02-12T15:07:38;103884.31;;;8.64;76.08
71976;BME280;60680;52.182;5.398;2023-02-12T15:10:18;103885.16;;;8.65;76.57
71976;BME280;60680;52.182;5.398;2023-02-12T15:12:56;103881.69;;;8.64;76.20
71976;BME280;60680;52.182;5.398;2023-02-12T15:15:31;103884.28;;;8.63;75.53
71976;BME280;60680;52.182;5.398;2023-02-12T15:18:03;103881.69;;;8.60;76.02
71976;BME280;60680;52.182;5.398;2023-02-12T15:20:47;103883.38;;;8.56;75.84
71976;BME280;60680;52.182;5.398;2023-02-12T15:23:35;103882.50;;;8.55;75.64
71976;BME280;60680;52.182;5.398;2023-02-12T15:26:05;103882.50;;;8.51;74.76
71976;BME280;60680;52.182;5.398;2023-02-12T15:28:38;103883.31;;;8.50;75.48
71976;BME280;60680;52.182;5.398;2023-02-12T15:31:06;103879.84;;;8.48;75.44
71976;BME280;60680;52.182;5.398;2023-02-12T15:33:40;103878.13;;;8.50;75.61
71976;BME280;60680;52.182;5.398;2023-02-12T15:36:16;103877.25;;;8.48;76.00
71976;BME280;60680;52.182;5.398;2023-02-12T15:38:47;103879.00;;;8.47;75.56
71976;BME280;60680;52.182;5.398;2023-02-12T15:41:34;103878.13;;;8.47;75.70
71976;BME280;60680;52.182;5.398;2023-02-12T15:44:31;103872.06;;;8.46;75.55
71976;BME280;60680;52.182;5.398;2023-02-12T15:49:32;103865.13;;;8.42;75.11